Bison, SD (57620)

5:23 PM MDT on September 23, 2014 (GMT -0600)
RAWS SHADEHILL SD US | Change Station
CLOSE
Current Station
Personal Weather Station
Location: Lemmon, SD
Elevation: 2515 ft
Nearby Weather Stations

Elev 2515 ft 45.67 °N, 102.17 °W | Updated 43 minutes ago

Clear
Clear
76 °F
Feels Like 78 °F
N
9
Wind Variable Wind from ESE
Gusts 14.0 mph

Today
High -- | Low -- °F
--% Chance of Precip.
Yesterday
High -- | Low -- °F
Precip. -- in
6:38 AM 6:45 PM
Waning Crescent, 0% visible
Pressure 29.84 in
Visibility 10.0 miles
Clouds Clear
Heat Index 78 °F
Dew Point 57 °F
Humidity 52%
Rainfall 0.00 in
Snow Depth 0 in
UV 1 out of 12
Pollen 4.00 out of 12
Air Quality Not available.
Flu Activity Not available.
METAR KHEI 232253Z AUTO 16005KT 10SM CLR 26/13 A2988 RMK AO2 SLP105 T02560133

More Conditions Fewer Conditions

Pressure 29.84 in
Visibility 10.0 miles
Clouds Clear
Heat Index 78 °F
Dew Point 57 °F
Humidity 52%
Rainfall 0.00 in
Snow Depth 0 in
UV 1 out of 12
Pollen 4.00 out of 12
Air Quality Not available.
Flu Activity Not available.
METAR KHEI 232253Z AUTO 16005KT 10SM CLR 26/13 A2988 RMK AO2 SLP105 T02560133

More Conditions Fewer Conditions

10-Day Weather Forecast

Almanac

Astronomy

Sep. 23, 2014 Rise Set
Actual Time 6:38 AM MDT 6:45 PM MDT
Civil Twilight 6:08 AM MDT 7:14 PM MDT
Nautical Twilight 5:33 AM MDT 7:49 PM MDT
Astronomical Twilight 4:58 AM MDT 8:25 PM MDT
Moon 6:04 AM MDT 6:24 PM MDT
Length of Visible Light 13h 06m
Length of Day
12h 07m
Tomorrow will be 3m 10s shorter.
Waning Crescent, 0% of the Moon is Illuminated
Today
Waning Crescent
Sep 24
New
Oct 1
First Quarter
Oct 8
Full
Oct 15
Last Quarter

Today's Extremes

State Highs State Lows

Community

WunderPhotos

Upload Photos

1,755,821 photos uploaded!

WunderBlogs® & News

Nearby

Snow Depth

Station Depth Elevation
Blind Park 0 in 6890 ft

Earthquake Activity

City Distance Mag. Time & Date
No recent earthquake activity has been reported nearby.
Minimum magnitude displayed is 2.5.

Coastal Water Temperatures

Place Temperature
No Stations Reporting

Nearby Weather Stations